createdAt,value
2022-10-29T00:00:56.000Z,84.77
2022-10-29T00:01:56.000Z,84.77
2022-10-29T00:02:56.000Z,84.77
2022-10-29T00:03:56.000Z,84.77
2022-10-29T00:04:56.000Z,84.77
2022-10-29T00:05:56.000Z,84.77
2022-10-29T00:06:56.000Z,84.77
2022-10-29T00:07:56.000Z,84.67
2022-10-29T00:08:56.000Z,84.67
2022-10-29T00:09:56.000Z,84.63
2022-10-29T00:10:56.000Z,84.53
2022-10-29T00:11:56.000Z,84.53
2022-10-29T00:12:56.000Z,84.42
2022-10-29T00:13:56.000Z,84.42
2022-10-29T00:14:56.000Z,84.53
2022-10-29T00:15:56.000Z,84.42
2022-10-29T00:16:56.000Z,84.33
2022-10-29T00:17:56.000Z,84.22
2022-10-29T00:18:56.000Z,84.12
2022-10-29T00:19:56.000Z,84.12
2022-10-29T00:20:56.000Z,84.02
2022-10-29T00:21:56.000Z,83.92
2022-10-29T00:22:56.000Z,83.92
2022-10-29T00:23:56.000Z,84.02
2022-10-29T00:24:56.000Z,83.92
2022-10-29T00:25:56.000Z,83.82
2022-10-29T00:26:56.000Z,83.82
2022-10-29T00:27:56.000Z,83.92
2022-10-29T00:28:56.000Z,84.12
2022-10-29T00:29:56.000Z,84.12
2022-10-29T00:30:56.000Z,84.12
2022-10-29T00:31:56.000Z,83.98
2022-10-29T00:32:56.000Z,83.88
2022-10-29T00:33:56.000Z,84.19
2022-10-29T00:34:56.000Z,84.39
2022-10-29T00:35:56.000Z,84.48
2022-10-29T00:36:56.000Z,84.39
2022-10-29T00:37:56.000Z,84.39
2022-10-29T00:38:56.000Z,84.39
2022-10-29T00:39:56.000Z,84.14
2022-10-29T00:40:56.000Z,84.08
2022-10-29T00:41:56.000Z,83.94
2022-10-29T00:42:56.000Z,83.94
2022-10-29T00:43:56.000Z,83.74
2022-10-29T00:44:56.000Z,83.64
2022-10-29T00:45:56.000Z,83.44
2022-10-29T00:46:56.000Z,82.99
2022-10-29T00:47:56.000Z,82.99
2022-10-29T00:48:56.000Z,82.89
2022-10-29T00:49:56.000Z,82.89
2022-10-29T00:50:56.000Z,82.79
2022-10-29T00:51:56.000Z,82.69
2022-10-29T00:52:56.000Z,82.59
2022-10-29T00:53:56.000Z,82.59
2022-10-29T00:54:56.000Z,82.59
2022-10-29T00:55:56.000Z,82.49
2022-10-29T00:56:56.000Z,82.49
2022-10-29T00:57:56.000Z,82.49
2022-10-29T00:58:56.000Z,82.49
2022-10-29T00:59:56.000Z,82.39
2022-10-29T01:00:56.000Z,82.28
2022-10-29T01:01:56.000Z,82.28
2022-10-29T01:02:56.000Z,82.28
2022-10-29T01:03:56.000Z,82.28
2022-10-29T01:04:56.000Z,82.18
2022-10-29T01:05:56.000Z,82.28
2022-10-29T01:06:56.000Z,82.18
2022-10-29T01:07:56.000Z,82.18
2022-10-29T01:08:56.000Z,82.18
2022-10-29T01:09:56.000Z,82.08
2022-10-29T01:10:56.000Z,82.08
2022-10-29T01:11:56.000Z,82.08
2022-10-29T01:12:56.000Z,82.08
2022-10-29T01:13:56.000Z,81.98
2022-10-29T01:14:56.000Z,81.98
2022-10-29T01:15:56.000Z,81.98
2022-10-29T01:16:56.000Z,81.98
2022-10-29T01:17:56.000Z,82.18
2022-10-29T01:18:56.000Z,82.18
2022-10-29T01:19:56.000Z,82.18
2022-10-29T01:20:56.000Z,82.28
2022-10-29T01:21:56.000Z,82.28
2022-10-29T01:22:56.000Z,82.18
2022-10-29T01:23:56.000Z,82.22
2022-10-29T01:24:56.000Z,82.32
2022-10-29T01:25:56.000Z,82.62
2022-10-29T01:26:56.000Z,82.83
2022-10-29T01:27:55.000Z,82.73
2022-10-29T01:28:55.000Z,83.03
2022-10-29T01:29:55.000Z,83.33
2022-10-29T01:30:55.000Z,83.37
2022-10-29T01:31:55.000Z,83.58
2022-10-29T01:32:55.000Z,83.68
2022-10-29T01:33:55.000Z,83.88
2022-10-29T01:34:55.000Z,83.98
2022-10-29T01:35:55.000Z,84.08
2022-10-29T01:36:55.000Z,84.08
2022-10-29T01:37:55.000Z,84.28
2022-10-29T01:38:55.000Z,84.28
2022-10-29T01:39:55.000Z,84.42
2022-10-29T01:40:55.000Z,84.53
2022-10-29T01:41:55.000Z,84.73
2022-10-29T01:42:55.000Z,84.73
2022-10-29T01:43:55.000Z,85.03
2022-10-29T01:44:55.000Z,85.03
2022-10-29T01:45:55.000Z,85.03
2022-10-29T01:46:55.000Z,85.24
2022-10-29T01:47:55.000Z,85.33
2022-10-29T01:48:55.000Z,85.48
2022-10-29T01:49:55.000Z,85.68
2022-10-29T01:50:55.000Z,85.78
2022-10-29T01:51:55.000Z,85.88
2022-10-29T01:52:55.000Z,85.99
2022-10-29T01:53:55.000Z,85.99
2022-10-29T01:54:55.000Z,86.08
2022-10-29T01:55:55.000Z,86.19
2022-10-29T01:56:55.000Z,86.29
2022-10-29T01:57:55.000Z,86.29
2022-10-29T01:58:55.000Z,86.29
2022-10-29T01:59:55.000Z,86.39
2022-10-29T02:00:55.000Z,86.39
2022-10-29T02:01:55.000Z,86.49
2022-10-29T02:02:55.000Z,86.49
2022-10-29T02:03:55.000Z,86.49
2022-10-29T02:04:55.000Z,86.49
2022-10-29T02:05:55.000Z,86.49
2022-10-29T02:06:55.000Z,86.59
2022-10-29T02:07:55.000Z,86.79
2022-10-29T02:08:55.000Z,86.90
2022-10-29T02:09:55.000Z,86.90
2022-10-29T02:10:55.000Z,87.04
2022-10-29T02:11:55.000Z,87.14
2022-10-29T02:12:55.000Z,87.14
2022-10-29T02:13:55.000Z,87.14
2022-10-29T02:14:55.000Z,87.34
2022-10-29T02:15:55.000Z,87.34
2022-10-29T02:16:55.000Z,87.45
2022-10-29T02:17:55.000Z,87.45
2022-10-29T02:18:55.000Z,87.45
2022-10-29T02:19:55.000Z,87.34
2022-10-29T02:20:55.000Z,87.34
2022-10-29T02:21:55.000Z,87.45
2022-10-29T02:22:55.000Z,87.45
2022-10-29T02:23:55.000Z,87.54
2022-10-29T02:24:55.000Z,87.45
2022-10-29T02:25:55.000Z,87.45
2022-10-29T02:26:55.000Z,87.45
2022-10-29T02:27:55.000Z,87.54
2022-10-29T02:28:55.000Z,87.65
2022-10-29T02:29:55.000Z,87.65
2022-10-29T02:30:55.000Z,87.65
2022-10-29T02:31:55.000Z,87.74
2022-10-29T02:32:55.000Z,87.85
2022-10-29T02:33:55.000Z,87.95
2022-10-29T02:34:55.000Z,88.05
2022-10-29T02:35:55.000Z,88.09
2022-10-29T02:36:55.000Z,88.09
2022-10-29T02:37:55.000Z,88.05
2022-10-29T02:38:55.000Z,88.09
2022-10-29T02:39:55.000Z,88.20
2022-10-29T02:40:55.000Z,88.20
2022-10-29T02:41:55.000Z,88.20
2022-10-29T02:42:55.000Z,88.20
2022-10-29T02:43:55.000Z,88.20
2022-10-29T02:44:55.000Z,88.40
2022-10-29T02:45:55.000Z,88.29
2022-10-29T02:46:55.000Z,88.29
2022-10-29T02:47:55.000Z,88.20
2022-10-29T02:48:55.000Z,88.29
2022-10-29T02:49:55.000Z,88.29
2022-10-29T02:50:55.000Z,88.34
2022-10-29T02:51:55.000Z,88.29
2022-10-29T02:52:55.000Z,88.44
2022-10-29T02:53:55.000Z,88.40
2022-10-29T02:54:55.000Z,88.75
2022-10-29T02:55:55.000Z,88.75
2022-10-29T02:56:55.000Z,88.84
2022-10-29T02:57:55.000Z,88.95
2022-10-29T02:58:55.000Z,89.04
2022-10-29T02:59:55.000Z,89.15
2022-10-29T03:00:55.000Z,89.29
2022-10-29T03:01:54.000Z,89.19
2022-10-29T03:02:54.000Z,89.39
2022-10-29T03:03:54.000Z,89.39
2022-10-29T03:04:54.000Z,89.39
2022-10-29T03:05:54.000Z,89.50
2022-10-29T03:06:54.000Z,89.39
2022-10-29T03:07:54.000Z,89.50
2022-10-29T03:08:54.000Z,89.64
2022-10-29T03:09:54.000Z,89.74
2022-10-29T03:10:54.000Z,89.84
2022-10-29T03:11:54.000Z,89.94
2022-10-29T03:12:54.000Z,90.05
2022-10-29T03:13:54.000Z,90.25
2022-10-29T03:14:54.000Z,90.25
2022-10-29T03:15:54.000Z,90.25
2022-10-29T03:16:54.000Z,90.45
2022-10-29T03:17:54.000Z,90.45
2022-10-29T03:18:54.000Z,90.70
2022-10-29T03:19:54.000Z,90.70
2022-10-29T03:20:54.000Z,91.00
2022-10-29T03:21:54.000Z,91.10
2022-10-29T03:22:54.000Z,91.30
2022-10-29T03:23:54.000Z,91.41
2022-10-29T03:24:54.000Z,91.30
2022-10-29T03:25:54.000Z,91.41
2022-10-29T03:26:54.000Z,91.30
2022-10-29T03:27:54.000Z,91.51
2022-10-29T03:28:54.000Z,91.55
2022-10-29T03:29:54.000Z,91.86
2022-10-29T03:30:54.000Z,91.86
2022-10-29T03:31:54.000Z,91.96
2022-10-29T03:32:54.000Z,92.06
2022-10-29T03:33:54.000Z,92.16
2022-10-29T03:34:54.000Z,92.57
2022-10-29T03:35:54.000Z,92.47
2022-10-29T03:36:54.000Z,92.36
2022-10-29T03:37:54.000Z,92.67
2022-10-29T03:38:54.000Z,92.77
2022-10-29T03:39:54.000Z,92.77
2022-10-29T03:40:54.000Z,92.87
2022-10-29T03:41:54.000Z,93.07
2022-10-29T03:42:54.000Z,93.28
2022-10-29T03:43:54.000Z,93.48
2022-10-29T03:44:54.000Z,93.68
2022-10-29T03:45:54.000Z,93.83
2022-10-29T03:46:54.000Z,93.68
2022-10-29T03:47:54.000Z,93.63
2022-10-29T03:48:54.000Z,93.38
2022-10-29T03:49:54.000Z,93.43
2022-10-29T03:50:54.000Z,93.22
2022-10-29T03:51:54.000Z,93.22
2022-10-29T03:52:54.000Z,93.22
2022-10-29T03:53:54.000Z,93.22
2022-10-29T03:54:54.000Z,93.32
2022-10-29T03:55:54.000Z,93.52
2022-10-29T03:56:54.000Z,93.73
2022-10-29T03:57:54.000Z,93.83
2022-10-29T03:58:54.000Z,93.83
2022-10-29T03:59:54.000Z,93.83
2022-10-29T04:00:54.000Z,93.83
2022-10-29T04:01:54.000Z,93.73
2022-10-29T04:02:54.000Z,93.73
2022-10-29T04:03:54.000Z,93.67
2022-10-29T04:04:54.000Z,93.77
2022-10-29T04:05:54.000Z,93.77
2022-10-29T04:06:54.000Z,93.77
2022-10-29T04:07:54.000Z,93.87
2022-10-29T04:08:54.000Z,93.77
2022-10-29T04:09:54.000Z,93.57
2022-10-29T04:10:54.000Z,93.47
2022-10-29T04:11:54.000Z,93.47
2022-10-29T04:12:54.000Z,93.47
2022-10-29T04:13:54.000Z,93.47
2022-10-29T04:14:54.000Z,93.51
2022-10-29T04:15:54.000Z,93.62
2022-10-29T04:15:54.000Z,93.62
2022-10-29T04:16:54.000Z,93.71
2022-10-29T04:16:54.000Z,93.71
2022-10-29T04:17:54.000Z,93.82
2022-10-29T04:17:54.000Z,93.82
2022-10-29T04:18:54.000Z,94.02
2022-10-29T04:18:54.000Z,94.02
2022-10-29T04:19:54.000Z,94.32
2022-10-29T04:19:54.000Z,94.32
2022-10-29T04:20:54.000Z,94.63
2022-10-29T04:21:54.000Z,94.84
2022-10-29T04:22:54.000Z,95.24
2022-10-29T04:23:54.000Z,95.45
2022-10-29T04:24:54.000Z,95.65
2022-10-29T04:27:10.000Z,95.90
2022-10-29T04:27:10.000Z,95.85
2022-10-29T04:28:10.000Z,96.00
2022-10-29T04:29:10.000Z,95.95
2022-10-29T04:30:10.000Z,95.95
2022-10-29T04:31:10.000Z,95.85
2022-10-29T04:32:10.000Z,95.79
2022-10-29T04:33:10.000Z,95.69
2022-10-29T04:34:10.000Z,95.59
2022-10-29T04:35:10.000Z,95.49
2022-10-29T04:36:10.000Z,95.49
2022-10-29T04:37:10.000Z,95.49
2022-10-29T04:38:10.000Z,95.49
2022-10-29T04:39:10.000Z,95.49
2022-10-29T04:40:10.000Z,95.59
2022-10-29T04:47:27.000Z,95.69
2022-10-29T04:47:27.000Z,95.69
2022-10-29T04:48:27.000Z,95.59
2022-10-29T04:49:27.000Z,95.59
2022-10-29T04:50:27.000Z,95.59
2022-10-29T04:51:27.000Z,95.49
2022-10-29T04:52:27.000Z,95.59
2022-10-29T04:53:27.000Z,95.69
2022-10-29T04:54:27.000Z,95.69
2022-10-29T04:55:27.000Z,95.69
2022-10-29T04:56:27.000Z,95.74
2022-10-29T04:57:27.000Z,95.74
2022-10-29T04:58:27.000Z,95.84
2022-10-29T04:59:27.000Z,95.94
2022-10-29T05:00:27.000Z,96.04
2022-10-29T05:01:27.000Z,96.15
2022-10-29T05:02:27.000Z,96.25
2022-10-29T05:03:27.000Z,96.25
2022-10-29T05:04:27.000Z,96.15
2022-10-29T05:05:27.000Z,96.04
2022-10-29T05:06:27.000Z,96.04
2022-10-29T05:07:27.000Z,96.04
2022-10-29T05:08:27.000Z,96.15
2022-10-29T05:09:27.000Z,96.15
2022-10-29T05:10:27.000Z,96.15
2022-10-29T05:11:27.000Z,96.15
2022-10-29T05:12:27.000Z,96.15
2022-10-29T05:13:27.000Z,96.15
2022-10-29T05:14:27.000Z,96.15
2022-10-29T05:15:27.000Z,96.19
2022-10-29T05:16:27.000Z,96.15
2022-10-29T05:17:27.000Z,96.30
2022-10-29T05:18:27.000Z,96.30
2022-10-29T05:19:27.000Z,96.30
2022-10-29T05:20:27.000Z,96.19
2022-10-29T05:21:27.000Z,96.19
2022-10-29T05:22:27.000Z,96.19
2022-10-29T05:23:27.000Z,96.30
2022-10-29T05:24:27.000Z,96.50
2022-10-29T05:25:27.000Z,96.50
2022-10-29T05:26:27.000Z,96.60
2022-10-29T05:27:27.000Z,96.70
2022-10-29T05:28:27.000Z,96.80
2022-10-29T05:29:27.000Z,96.95
2022-10-29T05:30:27.000Z,96.95
2022-10-29T05:31:27.000Z,97.00
2022-10-29T05:32:27.000Z,97.11
2022-10-29T05:33:27.000Z,97.31
2022-10-29T05:34:27.000Z,97.31
2022-10-29T05:35:27.000Z,97.41
2022-10-29T05:36:27.000Z,97.52
2022-10-29T05:37:27.000Z,97.46
2022-10-29T05:38:27.000Z,97.46
2022-10-29T05:39:27.000Z,97.41
2022-10-29T05:40:27.000Z,97.41
2022-10-29T05:41:27.000Z,97.46
2022-10-29T05:42:27.000Z,97.56
2022-10-29T05:43:27.000Z,97.46
2022-10-29T05:44:27.000Z,97.46
2022-10-29T05:45:27.000Z,97.46
2022-10-29T05:46:26.000Z,97.56
2022-10-29T05:47:26.000Z,97.56
2022-10-29T05:48:26.000Z,97.56
2022-10-29T05:49:26.000Z,97.56
2022-10-29T05:50:26.000Z,97.56
2022-10-29T05:51:26.000Z,97.66
2022-10-29T05:52:26.000Z,97.66
2022-10-29T05:53:26.000Z,97.66
2022-10-29T05:54:26.000Z,97.66
2022-10-29T05:55:26.000Z,97.66
2022-10-29T05:56:26.000Z,97.66
2022-10-29T05:57:26.000Z,97.77
2022-10-29T05:58:26.000Z,97.87
2022-10-29T05:59:26.000Z,97.97
2022-10-29T06:00:26.000Z,97.97
2022-10-29T06:01:26.000Z,98.18
2022-10-29T06:02:26.000Z,98.38
2022-10-29T06:03:26.000Z,98.38
2022-10-29T06:04:26.000Z,98.58
2022-10-29T06:05:26.000Z,98.68
2022-10-29T06:06:26.000Z,98.68
2022-10-29T06:07:26.000Z,98.68
2022-10-29T06:08:26.000Z,98.68
2022-10-29T06:09:26.000Z,98.68
2022-10-29T06:10:26.000Z,98.58
2022-10-29T06:11:26.000Z,98.58
2022-10-29T06:12:26.000Z,98.58
2022-10-29T06:13:26.000Z,98.58
2022-10-29T06:14:26.000Z,98.68
2022-10-29T06:15:26.000Z,98.68
2022-10-29T06:16:26.000Z,98.79
2022-10-29T06:17:26.000Z,98.89
2022-10-29T06:18:26.000Z,98.94
2022-10-29T06:19:26.000Z,98.94
2022-10-29T06:20:26.000Z,99.04
2022-10-29T06:21:26.000Z,99.15
2022-10-29T06:22:26.000Z,99.15
2022-10-29T06:23:26.000Z,99.25
2022-10-29T06:24:26.000Z,99.25
2022-10-29T06:25:26.000Z,99.25
2022-10-29T06:26:26.000Z,99.20
2022-10-29T06:27:26.000Z,99.25
2022-10-29T06:28:26.000Z,99.35
2022-10-29T06:29:26.000Z,99.30
2022-10-29T06:30:26.000Z,99.30
2022-10-29T06:31:26.000Z,99.30
2022-10-29T06:32:26.000Z,99.41
2022-10-29T06:33:26.000Z,99.30
2022-10-29T06:34:26.000Z,99.26
2022-10-29T06:35:26.000Z,99.20
2022-10-29T06:36:26.000Z,98.95
2022-10-29T06:37:26.000Z,98.75
2022-10-29T06:38:26.000Z,98.65
2022-10-29T06:39:26.000Z,98.44
2022-10-29T06:40:26.000Z,98.30
2022-10-29T06:41:26.000Z,98.19
2022-10-29T06:42:26.000Z,98.19
2022-10-29T06:43:26.000Z,98.09
2022-10-29T06:44:26.000Z,97.99
2022-10-29T06:45:26.000Z,97.89
2022-10-29T06:46:26.000Z,97.74
2022-10-29T06:47:26.000Z,97.44
2022-10-29T06:48:26.000Z,97.23
2022-10-29T06:49:26.000Z,97.13
2022-10-29T06:50:26.000Z,96.83
2022-10-29T06:51:26.000Z,96.47
2022-10-29T06:52:26.000Z,96.37
2022-10-29T06:53:26.000Z,96.27
2022-10-29T06:54:26.000Z,95.97
2022-10-29T06:55:26.000Z,95.36
2022-10-29T06:56:26.000Z,94.90
2022-10-29T06:57:26.000Z,94.70
2022-10-29T06:58:26.000Z,94.40
2022-10-29T06:59:26.000Z,94.20
2022-10-29T07:00:26.000Z,94.09
2022-10-29T07:01:26.000Z,93.99
2022-10-29T07:02:26.000Z,93.99
2022-10-29T07:03:26.000Z,93.99
2022-10-29T07:04:26.000Z,93.99
2022-10-29T07:05:26.000Z,93.95
2022-10-29T07:15:40.000Z,92.68
2022-10-29T07:15:40.000Z,92.68
2022-10-29T07:16:40.000Z,92.03
2022-10-29T07:17:40.000Z,91.22
2022-10-29T07:18:40.000Z,90.92
2022-10-29T07:19:40.000Z,90.51
2022-10-29T07:20:40.000Z,90.16
2022-10-29T07:21:40.000Z,90.06
2022-10-29T07:22:40.000Z,89.15
2022-10-29T07:23:40.000Z,89.31
2022-10-29T07:24:40.000Z,88.60
2022-10-29T07:25:40.000Z,88.25
2022-10-29T07:26:40.000Z,87.95
2022-10-29T07:27:40.000Z,87.65
2022-10-29T07:28:40.000Z,88.11
2022-10-29T07:29:40.000Z,87.20
2022-10-29T07:30:40.000Z,86.45
2022-10-29T07:31:40.000Z,86.25
2022-10-29T07:32:40.000Z,85.80
2022-10-29T07:33:40.000Z,85.70
2022-10-29T07:34:40.000Z,84.95
2022-10-29T07:35:40.000Z,83.44
2022-10-29T07:36:40.000Z,82.83
2022-10-29T07:37:40.000Z,83.19
2022-10-29T07:38:40.000Z,82.79
2022-10-29T07:39:40.000Z,83.40
2022-10-29T07:40:40.000Z,82.95
2022-10-29T07:41:40.000Z,82.45
2022-10-29T07:42:40.000Z,82.24
2022-10-29T07:43:40.000Z,83.15
2022-10-29T07:44:40.000Z,82.91
2022-10-29T07:45:40.000Z,82.67
2022-10-29T07:46:40.000Z,81.67
2022-10-29T07:47:40.000Z,81.87
2022-10-29T07:48:40.000Z,81.32
2022-10-29T07:49:40.000Z,80.92
2022-10-29T07:50:40.000Z,81.38
2022-10-29T07:51:40.000Z,80.18
2022-10-29T07:52:40.000Z,79.97
2022-10-29T07:53:40.000Z,80.07
2022-10-29T07:54:40.000Z,80.18
2022-10-29T07:55:40.000Z,80.13
2022-10-29T07:56:40.000Z,79.36
2022-10-29T07:57:40.000Z,79.36
2022-10-29T07:58:40.000Z,79.47
2022-10-29T07:59:40.000Z,79.77
2022-10-29T08:00:40.000Z,80.18
2022-10-29T08:01:40.000Z,80.58
2022-10-29T08:02:40.000Z,80.58
2022-10-29T08:03:40.000Z,80.38
2022-10-29T08:04:40.000Z,80.68
2022-10-29T08:05:40.000Z,80.58
2022-10-29T08:06:40.000Z,80.74
2022-10-29T08:07:40.000Z,80.44
2022-10-29T08:08:39.000Z,80.84
2022-10-29T08:09:39.000Z,80.64
2022-10-29T08:10:39.000Z,81.04
2022-10-29T08:11:39.000Z,81.65
2022-10-29T08:12:39.000Z,81.65
2022-10-29T08:13:39.000Z,80.74
2022-10-29T08:14:39.000Z,80.84
2022-10-29T08:15:39.000Z,80.13
2022-10-29T08:16:39.000Z,80.30
2022-10-29T08:17:39.000Z,80.10
2022-10-29T08:18:39.000Z,80.50
2022-10-29T08:19:39.000Z,80.10
2022-10-29T08:20:39.000Z,80.30
2022-10-29T08:21:39.000Z,80.40
2022-10-29T08:22:39.000Z,80.70
2022-10-29T08:23:39.000Z,80.66
2022-10-29T08:24:39.000Z,81.17
2022-10-29T08:25:39.000Z,80.77
2022-10-29T08:26:39.000Z,80.73
2022-10-29T08:27:39.000Z,81.13
2022-10-29T08:28:39.000Z,80.63
2022-10-29T08:29:39.000Z,80.32
2022-10-29T08:30:39.000Z,80.49
2022-10-29T08:31:39.000Z,79.68
2022-10-29T08:32:39.000Z,79.54
2022-10-29T08:33:39.000Z,79.04
2022-10-29T08:34:39.000Z,78.74
2022-10-29T08:35:39.000Z,78.30
2022-10-29T08:36:39.000Z,77.90
2022-10-29T08:37:39.000Z,77.86
2022-10-29T08:38:39.000Z,77.72
2022-10-29T08:39:39.000Z,76.82
2022-10-29T08:40:39.000Z,75.78
2022-10-29T08:41:39.000Z,74.44
2022-10-29T08:42:39.000Z,74.01
2022-10-29T08:43:39.000Z,73.67
2022-10-29T08:44:39.000Z,73.16
2022-10-29T08:45:39.000Z,73.23
2022-10-29T08:46:39.000Z,72.39
2022-10-29T08:47:39.000Z,71.39
2022-10-29T08:47:39.000Z,71.39
2022-10-29T08:48:39.000Z,71.56
2022-10-29T08:48:39.000Z,71.56
2022-10-29T08:49:39.000Z,70.32
2022-10-29T08:49:39.000Z,70.32
2022-10-29T08:50:39.000Z,70.23
2022-10-29T08:50:39.000Z,70.23
2022-10-29T08:51:39.000Z,70.53
2022-10-29T08:51:39.000Z,70.53
2022-10-29T08:52:39.000Z,69.59
2022-10-29T08:53:39.000Z,69.59
2022-10-29T08:54:39.000Z,68.66
2022-10-29T08:55:39.000Z,68.06
2022-10-29T08:56:39.000Z,68.46
2022-10-29T08:57:39.000Z,69.19
2022-10-29T08:58:39.000Z,69.66
2022-10-29T08:59:39.000Z,69.06
2022-10-29T09:00:39.000Z,68.96
2022-10-29T09:01:39.000Z,68.56
2022-10-29T09:02:39.000Z,68.06
2022-10-29T09:03:39.000Z,68.26
2022-10-29T09:04:39.000Z,68.13
2022-10-29T09:05:39.000Z,67.93
2022-10-29T09:06:39.000Z,68.03
2022-10-29T09:07:39.000Z,67.53
2022-10-29T09:08:39.000Z,68.70
2022-10-29T09:09:39.000Z,67.69
2022-10-29T09:10:39.000Z,66.89
2022-10-29T09:11:39.000Z,66.96
2022-10-29T09:12:39.000Z,66.36
2022-10-29T09:13:39.000Z,66.47
2022-10-29T09:14:39.000Z,66.96
2022-10-29T09:15:39.000Z,65.97
2022-10-29T09:16:39.000Z,65.56
2022-10-29T09:17:39.000Z,65.87
2022-10-29T09:18:39.000Z,67.46
2022-10-29T09:19:39.000Z,67.76
2022-10-29T09:20:39.000Z,67.57
2022-10-29T09:21:39.000Z,68.19
2022-10-29T09:22:39.000Z,67.00
2022-10-29T09:23:39.000Z,67.10
2022-10-29T09:24:39.000Z,68.19
2022-10-29T09:25:39.000Z,67.07
2022-10-29T09:26:39.000Z,65.87
2022-10-29T09:27:39.000Z,66.30
2022-10-29T09:28:39.000Z,66.27
2022-10-29T09:29:39.000Z,65.37
2022-10-29T09:30:39.000Z,65.07
2022-10-29T09:31:39.000Z,66.27
2022-10-29T09:32:39.000Z,66.50
2022-10-29T09:33:39.000Z,66.70
2022-10-29T09:34:39.000Z,67.49
2022-10-29T09:35:39.000Z,67.83
2022-10-29T09:36:39.000Z,68.93
2022-10-29T09:37:39.000Z,69.13
2022-10-29T09:38:39.000Z,69.43
2022-10-29T09:39:39.000Z,69.93
2022-10-29T09:40:39.000Z,69.16
2022-10-29T09:41:39.000Z,70.16
2022-10-29T09:42:38.000Z,69.76
2022-10-29T09:43:38.000Z,70.36
2022-10-29T09:44:38.000Z,70.66
2022-10-29T09:45:38.000Z,70.76
2022-10-29T09:46:38.000Z,69.96
2022-10-29T09:47:38.000Z,70.46
2022-10-29T09:48:38.000Z,70.72
2022-10-29T09:49:38.000Z,70.92
2022-10-29T09:50:38.000Z,71.03
2022-10-29T09:51:38.000Z,70.62
2022-10-29T09:52:38.000Z,70.12
2022-10-29T09:53:38.000Z,69.73
2022-10-29T09:54:38.000Z,68.86
2022-10-29T09:55:38.000Z,69.36
2022-10-29T09:56:38.000Z,68.46
2022-10-29T09:57:38.000Z,69.32
2022-10-29T09:58:38.000Z,70.42
2022-10-29T09:59:38.000Z,68.43
2022-10-29T10:00:38.000Z,69.02
2022-10-29T10:01:38.000Z,69.82
2022-10-29T10:02:38.000Z,69.23
2022-10-29T10:03:38.000Z,67.93
2022-10-29T10:04:38.000Z,67.93
2022-10-29T10:05:38.000Z,68.73
2022-10-29T10:06:38.000Z,69.23
2022-10-29T10:07:38.000Z,69.79
2022-10-29T10:08:38.000Z,68.70
2022-10-29T10:09:38.000Z,68.10
2022-10-29T10:10:38.000Z,68.59
2022-10-29T10:11:38.000Z,70.59
2022-10-29T10:12:38.000Z,67.80
2022-10-29T10:13:38.000Z,68.10
2022-10-29T10:14:38.000Z,69.39
2022-10-29T10:15:38.000Z,69.20
2022-10-29T10:16:38.000Z,70.79
2022-10-29T10:17:38.000Z,70.89
2022-10-29T10:18:38.000Z,69.49
2022-10-29T10:19:38.000Z,69.89
2022-10-29T10:20:38.000Z,68.43
2022-10-29T10:21:38.000Z,69.02
2022-10-29T10:22:38.000Z,70.03
2022-10-29T10:23:38.000Z,70.32
2022-10-29T10:24:38.000Z,70.72
2022-10-29T10:25:38.000Z,67.53
2022-10-29T10:26:38.000Z,68.93
2022-10-29T10:27:38.000Z,67.63
2022-10-29T10:28:38.000Z,69.62
2022-10-29T10:29:38.000Z,69.02
2022-10-29T10:30:38.000Z,67.53
2022-10-29T10:31:38.000Z,67.72
2022-10-29T10:32:38.000Z,67.80
2022-10-29T10:33:38.000Z,67.40
2022-10-29T10:34:38.000Z,65.40
2022-10-29T10:35:38.000Z,65.97
2022-10-29T10:36:38.000Z,67.57
2022-10-29T10:37:38.000Z,64.07
2022-10-29T10:38:38.000Z,64.74
2022-10-29T10:39:38.000Z,64.94
2022-10-29T10:40:38.000Z,65.44
2022-10-29T10:41:38.000Z,67.03
2022-10-29T10:42:38.000Z,67.30
2022-10-29T10:43:38.000Z,65.91
2022-10-29T10:44:38.000Z,65.41
2022-10-29T10:45:38.000Z,67.10
2022-10-29T10:46:38.000Z,65.70
2022-10-29T10:47:38.000Z,65.20
2022-10-29T10:48:38.000Z,62.71
2022-10-29T10:49:38.000Z,62.91
2022-10-29T10:50:38.000Z,62.01
2022-10-29T10:51:38.000Z,63.51
2022-10-29T10:52:38.000Z,66.20
2022-10-29T10:53:38.000Z,64.28
2022-10-29T10:54:38.000Z,64.28
2022-10-29T10:55:38.000Z,64.07
2022-10-29T10:56:38.000Z,63.48
2022-10-29T10:57:38.000Z,64.48
2022-10-29T10:58:38.000Z,64.25
2022-10-29T10:59:38.000Z,62.55
2022-10-29T11:00:38.000Z,64.04
2022-10-29T11:01:38.000Z,61.72
2022-10-29T11:02:38.000Z,60.73
2022-10-29T11:03:38.000Z,62.23
2022-10-29T11:04:38.000Z,61.03
2022-10-29T11:05:38.000Z,61.03
2022-10-29T11:06:38.000Z,62.52
2022-10-29T11:07:38.000Z,62.89
2022-10-29T11:08:38.000Z,61.63
2022-10-29T11:09:38.000Z,63.49
2022-10-29T11:10:38.000Z,63.29
2022-10-29T11:11:38.000Z,61.99
2022-10-29T11:12:38.000Z,63.69
2022-10-29T11:12:38.000Z,63.69
2022-10-29T11:13:38.000Z,62.29
2022-10-29T11:13:38.000Z,62.29
2022-10-29T11:14:38.000Z,63.29
2022-10-29T11:14:38.000Z,63.29
2022-10-29T11:15:37.000Z,64.39
2022-10-29T11:15:37.000Z,64.39
2022-10-29T11:16:37.000Z,60.50
2022-10-29T11:16:37.000Z,60.50
2022-10-29T11:17:37.000Z,58.81
2022-10-29T11:18:37.000Z,60.00
2022-10-29T11:19:37.000Z,61.20
2022-10-29T11:20:37.000Z,60.47
2022-10-29T11:21:37.000Z,61.37
2022-10-29T11:22:37.000Z,62.96
2022-10-29T11:23:37.000Z,60.68
2022-10-29T11:24:37.000Z,60.97
2022-10-29T11:25:37.000Z,61.17
2022-10-29T11:26:37.000Z,61.96
2022-10-29T11:27:37.000Z,60.27
2022-10-29T11:28:37.000Z,59.98
2022-10-29T11:29:37.000Z,61.17
2022-10-29T11:30:37.000Z,60.97
2022-10-29T11:31:37.000Z,61.04
2022-10-29T11:32:37.000Z,60.74
2022-10-29T11:33:37.000Z,59.88
2022-10-29T11:34:37.000Z,58.98
2022-10-29T11:35:37.000Z,60.38
2022-10-29T11:36:37.000Z,58.71
2022-10-29T11:37:37.000Z,61.00
2022-10-29T11:38:37.000Z,60.30
2022-10-29T11:39:37.000Z,60.60
2022-10-29T11:40:37.000Z,59.01
2022-10-29T11:41:37.000Z,59.91
2022-10-29T11:42:37.000Z,60.70
2022-10-29T11:43:37.000Z,60.60
2022-10-29T11:44:37.000Z,60.80
2022-10-29T11:45:37.000Z,61.50
2022-10-29T11:46:37.000Z,61.69
2022-10-29T11:47:37.000Z,62.23
2022-10-29T11:48:37.000Z,62.23
2022-10-29T11:49:37.000Z,61.93
2022-10-29T11:50:37.000Z,62.02
2022-10-29T11:51:37.000Z,63.32
2022-10-29T11:52:37.000Z,61.72
2022-10-29T11:53:37.000Z,63.12
2022-10-29T11:54:37.000Z,62.75
2022-10-29T11:55:37.000Z,63.45
2022-10-29T11:56:37.000Z,64.25
2022-10-29T11:57:37.000Z,63.75
2022-10-29T11:58:37.000Z,63.25
2022-10-29T11:59:37.000Z,63.82
2022-10-29T12:00:37.000Z,64.22
2022-10-29T12:01:37.000Z,62.59
2022-10-29T12:02:37.000Z,61.60
2022-10-29T12:03:37.000Z,62.26
2022-10-29T12:04:37.000Z,61.67
2022-10-29T12:05:37.000Z,60.38
2022-10-29T12:06:37.000Z,60.97
2022-10-29T12:07:37.000Z,60.44
2022-10-29T12:08:37.000Z,60.64
2022-10-29T12:09:37.000Z,60.25
2022-10-29T12:10:37.000Z,60.44
2022-10-29T12:11:37.000Z,60.14
2022-10-29T12:12:45.000Z,60.64
2022-10-29T12:13:37.000Z,58.86
2022-10-29T12:14:37.000Z,60.05
2022-10-29T12:15:37.000Z,59.55
2022-10-29T12:16:37.000Z,59.75
2022-10-29T12:17:37.000Z,59.45
2022-10-29T12:18:37.000Z,59.35
2022-10-29T12:19:37.000Z,58.86
2022-10-29T12:20:37.000Z,60.97
2022-10-29T12:21:37.000Z,60.57
2022-10-29T12:22:37.000Z,61.37
2022-10-29T12:23:37.000Z,60.08
2022-10-29T12:24:37.000Z,59.70
2022-10-29T12:25:37.000Z,59.91
2022-10-29T12:26:37.000Z,60.13
2022-10-29T12:27:37.000Z,60.93
2022-10-29T12:28:37.000Z,61.55
2022-10-29T12:29:37.000Z,62.26
2022-10-29T12:30:37.000Z,62.05
2022-10-29T12:31:37.000Z,62.45
2022-10-29T12:32:37.000Z,61.79
2022-10-29T12:33:37.000Z,63.38
2022-10-29T12:34:37.000Z,63.38
2022-10-29T12:35:37.000Z,64.18
2022-10-29T12:36:37.000Z,63.98
2022-10-29T12:37:37.000Z,64.01
2022-10-29T12:38:37.000Z,65.01
2022-10-29T12:39:37.000Z,65.70
2022-10-29T12:40:37.000Z,65.70
2022-10-29T12:41:37.000Z,65.34
2022-10-29T12:42:37.000Z,65.34
2022-10-29T12:43:37.000Z,66.24
2022-10-29T12:44:37.000Z,65.73
2022-10-29T12:45:37.000Z,66.83
2022-10-29T12:46:37.000Z,67.53
2022-10-29T12:47:37.000Z,66.73
2022-10-29T12:48:37.000Z,68.13
2022-10-29T12:49:36.000Z,68.06
2022-10-29T12:50:36.000Z,68.46
2022-10-29T12:51:36.000Z,68.56